createdAt,value
2022-09-16T00:04:09.455Z,15.35
2022-09-16T00:09:11.584Z,15.40
2022-09-16T00:14:13.684Z,15.24
2022-09-16T00:19:17.286Z,15.15
2022-09-16T00:24:19.395Z,15.21
2022-09-16T00:29:21.430Z,15.17
2022-09-16T00:34:23.684Z,15.17
2022-09-16T00:39:25.938Z,15.10
2022-09-16T00:44:58.826Z,15.17
2022-09-16T00:50:14.532Z,15.13
2022-09-16T00:55:22.120Z,14.98
2022-09-16T01:00:24.396Z,14.92
2022-09-16T01:05:27.437Z,14.99
2022-09-16T01:10:29.569Z,15.11
2022-09-16T01:15:49.636Z,15.10
2022-09-16T01:21:01.542Z,15.15
2022-09-16T01:26:33.407Z,15.08
2022-09-16T01:32:07.163Z,15.07
2022-09-16T01:37:26.674Z,14.68
2022-09-16T01:42:43.876Z,14.81
2022-09-16T01:48:32.030Z,14.71
2022-09-16T01:53:40.295Z,14.85
2022-09-16T01:59:10.054Z,14.80
2022-09-16T02:04:22.422Z,14.83
2022-09-16T02:09:37.861Z,14.85
2022-09-16T02:14:43.328Z,14.87
2022-09-16T02:19:54.515Z,14.97
2022-09-16T02:24:59.048Z,15.31
2022-09-16T02:30:17.285Z,15.48
2022-09-16T02:35:22.215Z,15.47
2022-09-16T02:40:41.017Z,15.73
2022-09-16T02:46:04.827Z,15.79
2022-09-16T02:51:23.432Z,15.92
2022-09-16T02:56:32.187Z,16.03
2022-09-16T03:01:41.611Z,16.16
2022-09-16T03:06:44.213Z,16.19
2022-09-16T03:11:58.312Z,16.40
2022-09-16T03:17:08.647Z,16.31
2022-09-16T03:22:19.480Z,16.45
2022-09-16T03:27:44.868Z,16.25
2022-09-16T03:33:00.758Z,16.22
2022-09-16T03:43:54.972Z,16.16
2022-09-16T03:48:57.672Z,16.30
2022-09-16T03:53:59.765Z,16.29
2022-09-16T03:59:01.923Z,16.31
2022-09-16T04:04:04.384Z,16.12
2022-09-16T04:09:08.311Z,16.23
2022-09-16T04:14:11.386Z,16.16
2022-09-16T04:19:14.702Z,16.01
2022-09-16T04:24:16.785Z,15.67
2022-09-16T04:29:18.909Z,15.62
2022-09-16T04:34:21.203Z,15.80
2022-09-16T04:39:23.289Z,16.48
2022-09-16T04:44:26.847Z,16.67
2022-09-16T04:49:28.865Z,16.86
2022-09-16T04:54:31.052Z,17.40
2022-09-16T04:59:33.111Z,17.52
2022-09-16T05:04:35.516Z,17.46
2022-09-16T05:09:37.783Z,17.59
2022-09-16T05:14:39.981Z,17.92
2022-09-16T05:19:42.161Z,18.41
2022-09-16T05:24:44.986Z,18.48
2022-09-16T05:29:47.657Z,18.17
2022-09-16T05:50:06.683Z,19.41
2022-09-16T05:55:09.352Z,19.70
2022-09-16T06:00:12.761Z,19.53
2022-09-16T06:05:15.025Z,20.40
2022-09-16T06:10:17.259Z,21.97
2022-09-16T06:15:19.323Z,26.65
2022-09-16T06:20:21.485Z,30.06
2022-09-16T06:25:23.850Z,32.26
2022-09-16T06:30:30.435Z,32.99
2022-09-16T06:35:35.110Z,33.90
2022-09-16T06:40:37.339Z,30.84
2022-09-16T06:45:39.549Z,28.98
2022-09-16T06:50:41.680Z,30.39
2022-09-16T06:55:44.096Z,32.84
2022-09-16T07:00:46.296Z,31.13
2022-09-16T07:05:58.607Z,31.61
2022-09-16T07:11:03.664Z,30.07
2022-09-16T07:16:13.427Z,28.51
2022-09-16T07:21:17.258Z,28.76
2022-09-16T07:26:26.536Z,29.11
2022-09-16T07:31:31.597Z,30.46
2022-09-16T07:36:42.165Z,30.14
2022-09-16T07:41:46.612Z,29.96
2022-09-16T07:46:51.507Z,30.76
2022-09-16T07:51:53.994Z,30.18
2022-09-16T07:56:57.492Z,30.21
2022-09-16T08:01:59.617Z,30.60
2022-09-16T08:07:01.753Z,31.35
2022-09-16T08:12:06.069Z,32.31
2022-09-16T08:17:08.611Z,31.89
2022-09-16T08:22:10.672Z,32.14
2022-09-16T08:27:12.703Z,33.80
2022-09-16T08:32:14.932Z,33.93
2022-09-16T08:37:17.229Z,34.11
2022-09-16T08:42:44.029Z,34.75
2022-09-16T08:47:49.611Z,35.51
2022-09-16T08:52:55.331Z,36.31
2022-09-16T08:58:16.427Z,36.49
2022-09-16T09:03:39.965Z,36.27
2022-09-16T09:09:18.309Z,36.36
2022-09-16T09:14:30.153Z,37.00
2022-09-16T09:19:50.027Z,36.89
2022-09-16T09:25:06.995Z,36.49
2022-09-16T09:30:21.585Z,36.82
2022-09-16T09:36:05.433Z,36.96
2022-09-16T09:41:21.136Z,36.94
2022-09-16T09:46:41.724Z,37.60
2022-09-16T09:52:05.114Z,36.94
2022-09-16T09:57:37.927Z,36.88
2022-09-16T10:02:47.460Z,37.16
2022-09-16T10:07:55.357Z,36.53
2022-09-16T10:13:10.119Z,35.31
2022-09-16T10:18:21.166Z,36.19
2022-09-16T10:23:29.675Z,36.20
2022-09-16T10:28:32.524Z,35.61
2022-09-16T10:33:41.727Z,35.18
2022-09-16T10:39:02.259Z,34.50
2022-09-16T10:44:17.518Z,34.27
2022-09-16T10:49:25.189Z,34.46
2022-09-16T10:54:28.394Z,34.42
2022-09-16T10:59:30.507Z,33.78
2022-09-16T11:04:36.231Z,32.98
2022-09-16T11:09:50.761Z,32.78
2022-09-16T11:15:06.993Z,32.11
2022-09-16T11:20:34.204Z,32.01
2022-09-16T11:25:48.545Z,32.06
2022-09-16T11:31:02.629Z,32.01
2022-09-16T11:37:00.595Z,32.01
2022-09-16T11:42:30.241Z,31.74
2022-09-16T11:47:44.967Z,31.75
2022-09-16T11:53:01.529Z,31.67
2022-09-16T11:58:42.254Z,31.27
2022-09-16T12:03:55.878Z,31.37
2022-09-16T12:09:06.471Z,31.26
2022-09-16T12:14:20.963Z,31.39
2022-09-16T12:19:30.322Z,31.31
2022-09-16T12:24:43.000Z,31.40
2022-09-16T12:30:01.511Z,31.22
2022-09-16T12:35:15.472Z,31.01
2022-09-16T12:40:25.920Z,30.53
2022-09-16T12:45:48.100Z,30.04
2022-09-16T12:51:27.093Z,29.33
2022-09-16T12:56:50.716Z,28.68
2022-09-16T13:02:02.026Z,28.39
2022-09-16T13:07:05.272Z,28.78
2022-09-16T13:12:39.149Z,29.05
2022-09-16T13:17:43.991Z,29.40
2022-09-16T13:23:09.011Z,28.53
2022-09-16T13:28:32.814Z,27.83
2022-09-16T13:33:35.100Z,27.11
2022-09-16T13:38:41.349Z,26.81
2022-09-16T13:43:43.528Z,26.58
2022-09-16T13:49:16.618Z,26.24
2022-09-16T13:54:53.475Z,25.53
2022-09-16T14:00:06.736Z,25.64
2022-09-16T14:05:54.389Z,25.55
2022-09-16T14:11:12.407Z,25.74
2022-09-16T14:16:23.144Z,26.03
2022-09-16T14:21:25.517Z,25.89
2022-09-16T14:26:27.717Z,25.83
2022-09-16T14:31:32.112Z,25.64
2022-09-16T14:36:40.698Z,25.26
2022-09-16T14:41:53.444Z,24.85
2022-09-16T14:47:09.069Z,25.36
2022-09-16T14:52:24.714Z,25.11
2022-09-16T14:57:29.861Z,24.92
2022-09-16T15:02:41.380Z,24.72
2022-09-16T15:08:02.601Z,24.53
2022-09-16T15:13:13.043Z,24.06
2022-09-16T15:18:24.751Z,23.21
2022-09-16T15:23:28.521Z,22.41
2022-09-16T15:28:31.216Z,21.81
2022-09-16T15:33:42.971Z,21.70
2022-09-16T15:38:45.647Z,21.35
2022-09-16T15:43:48.547Z,20.87
2022-09-16T15:49:02.403Z,20.59
2022-09-16T15:54:27.830Z,20.49
2022-09-16T15:59:41.933Z,20.68
2022-09-16T16:04:44.668Z,20.65
2022-09-16T16:09:50.193Z,20.28
2022-09-16T16:15:00.878Z,20.11
2022-09-16T16:20:03.352Z,19.99
2022-09-16T16:25:08.799Z,19.92
2022-09-16T16:30:15.219Z,20.02
2022-09-16T16:35:17.423Z,19.82
2022-09-16T16:40:22.432Z,19.82
2022-09-16T16:45:24.676Z,19.98
2022-09-16T16:50:26.832Z,20.11
2022-09-16T16:55:29.134Z,20.02
2022-09-16T17:00:31.807Z,19.81
2022-09-16T17:05:33.939Z,19.91
2022-09-16T17:10:36.133Z,19.77
2022-09-16T17:15:38.460Z,19.68
2022-09-16T17:20:40.944Z,19.25
2022-09-16T17:25:43.071Z,19.35
2022-09-16T17:30:48.632Z,19.25
2022-09-16T17:36:02.352Z,19.49
2022-09-16T17:41:15.343Z,19.58
2022-09-16T17:46:24.351Z,19.44
2022-09-16T17:51:27.086Z,19.55
2022-09-16T17:56:29.802Z,19.59
2022-09-16T18:01:32.366Z,19.49
2022-09-16T18:06:44.465Z,19.35
2022-09-16T18:11:47.854Z,19.17
2022-09-16T18:16:50.205Z,18.90
2022-09-16T18:21:52.843Z,18.81
2022-09-16T18:26:55.130Z,19.05
2022-09-16T18:31:57.662Z,18.87
2022-09-16T18:36:59.925Z,18.98
2022-09-16T18:42:02.144Z,18.50
2022-09-16T18:47:04.523Z,18.55
2022-09-16T18:52:07.095Z,18.69
2022-09-16T18:57:09.480Z,18.36
2022-09-16T19:02:13.618Z,18.44
2022-09-16T19:07:17.495Z,18.24
2022-09-16T19:12:19.847Z,18.13
2022-09-16T19:17:23.156Z,18.24
2022-09-16T19:22:25.490Z,18.31
2022-09-16T19:27:27.700Z,17.96
2022-09-16T19:32:29.933Z,18.15
2022-09-16T19:37:32.215Z,18.17
2022-09-16T19:42:34.313Z,18.17
2022-09-16T19:47:38.713Z,18.01
2022-09-16T19:52:41.114Z,18.20
2022-09-16T19:57:46.400Z,18.05
2022-09-16T20:02:48.880Z,18.01
2022-09-16T20:07:51.108Z,17.85
2022-09-16T20:12:59.348Z,17.55
2022-09-16T20:18:04.205Z,17.59
2022-09-16T20:23:20.347Z,17.53
2022-09-16T20:28:23.121Z,17.54
2022-09-16T20:33:30.090Z,17.35
2022-09-16T20:38:37.080Z,17.17
2022-09-16T20:43:40.194Z,17.32
2022-09-16T20:48:42.870Z,17.30
2022-09-16T20:53:54.363Z,17.18
2022-09-16T20:58:56.591Z,17.23
2022-09-16T21:04:05.194Z,17.06
2022-09-16T21:09:10.367Z,16.69
2022-09-16T21:14:15.458Z,16.38
2022-09-16T21:19:18.162Z,16.24
2022-09-16T21:24:20.286Z,16.14
2022-09-16T21:29:22.284Z,16.22
2022-09-16T21:34:25.304Z,16.36
2022-09-16T21:39:28.353Z,16.27
2022-09-16T21:44:30.431Z,16.27
2022-09-16T21:49:35.397Z,16.40
2022-09-16T21:54:37.462Z,16.39
2022-09-16T21:59:39.538Z,16.23
2022-09-16T22:04:41.696Z,16.00
2022-09-16T22:09:43.888Z,15.94
2022-09-16T22:14:46.050Z,16.33
2022-09-16T22:19:48.143Z,16.20
2022-09-16T22:24:50.469Z,16.02
2022-09-16T22:29:53.211Z,16.25
2022-09-16T22:34:55.355Z,16.31
2022-09-16T22:39:57.547Z,16.17
2022-09-16T22:44:59.775Z,15.88
2022-09-16T22:50:02.056Z,15.82
2022-09-16T22:55:04.348Z,15.88
2022-09-16T23:00:06.948Z,15.76
2022-09-16T23:05:10.133Z,15.58
2022-09-16T23:10:12.320Z,15.47
2022-09-16T23:15:14.529Z,15.34
2022-09-16T23:20:16.831Z,15.28
2022-09-16T23:25:20.364Z,15.03
2022-09-16T23:30:22.639Z,15.02
2022-09-16T23:35:24.844Z,15.22
2022-09-16T23:40:28.908Z,15.24
2022-09-16T23:45:31.100Z,15.35
2022-09-16T23:50:33.216Z,15.50
2022-09-16T23:55:35.416Z,15.69
